createdAt,value
2022-09-27T00:02:32.819Z,64.28
2022-09-27T00:05:18.925Z,64.11
2022-09-27T00:08:05.136Z,64.42
2022-09-27T00:10:59.339Z,64.54
2022-09-27T00:13:45.782Z,64.20
2022-09-27T00:16:34.368Z,64.24
2022-09-27T00:19:22.679Z,64.45
2022-09-27T00:22:08.615Z,64.54
2022-09-27T00:24:55.114Z,64.39
2022-09-27T00:27:41.005Z,64.27
2022-09-27T00:30:27.243Z,64.35
2022-09-27T00:33:13.261Z,64.53
2022-09-27T00:36:06.685Z,64.43
2022-09-27T00:38:53.339Z,64.39
2022-09-27T00:41:39.816Z,64.36
2022-09-27T00:44:37.968Z,64.44
2022-09-27T00:47:23.792Z,64.41
2022-09-27T00:50:22.182Z,64.48
2022-09-27T00:53:11.480Z,64.28
2022-09-27T00:56:02.486Z,64.49
2022-09-27T00:58:54.184Z,64.47
2022-09-27T01:01:40.923Z,64.48
2022-09-27T01:04:28.481Z,64.59
2022-09-27T01:07:15.204Z,64.53
2022-09-27T01:10:01.755Z,64.40
2022-09-27T01:13:19.794Z,64.59
2022-09-27T01:16:20.033Z,64.48
2022-09-27T01:19:27.042Z,64.61
2022-09-27T01:22:45.717Z,64.78
2022-09-27T01:26:04.222Z,64.90
2022-09-27T01:29:07.537Z,64.71
2022-09-27T01:32:11.980Z,64.90
2022-09-27T01:34:57.933Z,64.71
2022-09-27T01:37:55.834Z,64.81
2022-09-27T01:41:12.588Z,64.97
2022-09-27T01:44:09.490Z,65.05
2022-09-27T01:47:10.221Z,64.98
2022-09-27T01:50:25.621Z,64.94
2022-09-27T01:53:24.310Z,65.09
2022-09-27T01:56:32.220Z,65.15
2022-09-27T01:59:31.332Z,65.23
2022-09-27T02:02:34.210Z,65.23
2022-09-27T02:05:44.042Z,64.83
2022-09-27T02:08:48.861Z,65.49
2022-09-27T02:12:00.290Z,65.14
2022-09-27T02:14:55.385Z,65.35
2022-09-27T02:18:11.142Z,65.32
2022-09-27T02:21:01.533Z,65.21
2022-09-27T02:23:52.723Z,65.21
2022-09-27T02:26:44.957Z,65.15
2022-09-27T02:29:39.936Z,65.33
2022-09-27T02:32:27.426Z,65.26
2022-09-27T02:35:26.950Z,65.41
2022-09-27T02:38:13.913Z,65.25
2022-09-27T02:41:00.153Z,65.21
2022-09-27T02:43:49.989Z,65.33
2022-09-27T02:46:53.210Z,65.42
2022-09-27T02:49:58.364Z,65.52
2022-09-27T02:53:30.551Z,65.58
2022-09-27T02:56:28.097Z,65.43
2022-09-27T02:59:49.733Z,65.46
2022-09-27T03:02:56.082Z,65.37
2022-09-27T03:06:07.050Z,65.37
2022-09-27T03:08:53.588Z,65.23
2022-09-27T03:11:39.572Z,65.33
2022-09-27T03:14:25.966Z,65.45
2022-09-27T03:17:26.398Z,65.24
2022-09-27T03:20:35.514Z,65.40
2022-09-27T03:23:30.207Z,65.57
2022-09-27T03:26:17.332Z,65.40
2022-09-27T03:29:03.473Z,65.64
2022-09-27T03:31:49.560Z,65.56
2022-09-27T03:34:50.536Z,65.58
2022-09-27T03:37:36.767Z,65.33
2022-09-27T03:40:23.125Z,65.71
2022-09-27T03:43:09.250Z,65.62
2022-09-27T03:45:55.452Z,65.58
2022-09-27T03:48:42.693Z,65.62
2022-09-27T03:51:29.275Z,65.68
2022-09-27T03:54:15.381Z,65.60
2022-09-27T03:57:01.053Z,65.56
2022-09-27T03:59:47.298Z,65.62
2022-09-27T04:02:52.156Z,65.66
2022-09-27T04:05:44.179Z,65.78
2022-09-27T04:08:35.222Z,65.82
2022-09-27T04:11:23.792Z,65.66
2022-09-27T04:14:13.001Z,65.53
2022-09-27T04:17:17.896Z,65.71
2022-09-27T04:20:20.338Z,65.65
2022-09-27T04:23:06.332Z,65.57
2022-09-27T04:25:54.094Z,65.91
2022-09-27T04:28:58.445Z,65.59
2022-09-27T04:31:44.841Z,65.83
2022-09-27T04:34:49.026Z,65.85
2022-09-27T04:37:41.999Z,65.70
2022-09-27T04:40:28.036Z,65.92
2022-09-27T04:43:13.833Z,65.85
2022-09-27T04:45:59.709Z,66.13
2022-09-27T04:48:46.026Z,65.92
2022-09-27T04:51:31.917Z,65.97
2022-09-27T04:54:19.221Z,66.07
2022-09-27T04:57:18.357Z,65.91
2022-09-27T05:00:05.558Z,65.98
2022-09-27T05:02:51.780Z,65.88
2022-09-27T05:06:04.119Z,66.21
2022-09-27T05:08:50.329Z,66.15
2022-09-27T05:11:39.372Z,65.63
2022-09-27T05:14:43.786Z,66.01
2022-09-27T05:17:42.755Z,66.64
2022-09-27T05:20:59.062Z,66.32
2022-09-27T05:23:54.747Z,66.16
2022-09-27T05:26:41.998Z,66.14
2022-09-27T05:29:28.187Z,66.32
2022-09-27T05:32:32.828Z,66.26
2022-09-27T05:35:52.759Z,66.18
2022-09-27T05:47:05.547Z,68.05
2022-09-27T05:49:53.935Z,68.07
2022-09-27T05:52:40.016Z,67.95
2022-09-27T05:55:26.793Z,67.60
2022-09-27T05:58:16.236Z,67.55
2022-09-27T06:01:11.903Z,67.29
2022-09-27T06:04:17.053Z,67.27
2022-09-27T06:07:15.091Z,67.02
2022-09-27T06:10:01.398Z,67.07
2022-09-27T06:12:47.469Z,67.26
2022-09-27T06:15:54.084Z,66.96
2022-09-27T06:18:40.604Z,66.98
2022-09-27T06:21:28.776Z,66.86
2022-09-27T06:24:16.865Z,67.62
2022-09-27T06:27:04.753Z,67.17
2022-09-27T06:30:20.367Z,67.01
2022-09-27T06:33:17.559Z,66.86
2022-09-27T06:36:09.864Z,66.83
2022-09-27T06:38:58.174Z,66.88
2022-09-27T06:41:57.853Z,66.77
2022-09-27T06:45:07.241Z,66.68
2022-09-27T06:48:06.521Z,67.43
2022-09-27T06:51:00.219Z,66.76
2022-09-27T06:53:46.400Z,66.98
2022-09-27T06:56:32.375Z,67.05
2022-09-27T06:59:36.748Z,67.37
2022-09-27T07:02:41.375Z,67.21
2022-09-27T07:05:59.118Z,67.50
2022-09-27T07:09:08.133Z,66.99
2022-09-27T07:11:55.318Z,67.48
2022-09-27T07:14:41.421Z,67.80
2022-09-27T07:17:31.555Z,67.16
2022-09-27T07:20:18.663Z,67.16
2022-09-27T07:23:06.723Z,66.76
2022-09-27T07:25:53.129Z,66.81
2022-09-27T07:28:41.590Z,67.04
2022-09-27T07:31:30.106Z,66.88
2022-09-27T07:34:18.238Z,67.34
2022-09-27T07:37:05.685Z,67.13
2022-09-27T07:39:56.249Z,66.63
2022-09-27T07:42:44.047Z,66.78
2022-09-27T07:45:31.260Z,66.66
2022-09-27T07:48:41.267Z,66.93
2022-09-27T07:51:47.414Z,66.66
2022-09-27T07:55:06.411Z,67.10
2022-09-27T07:58:10.149Z,67.28
2022-09-27T08:00:59.491Z,67.66
2022-09-27T08:03:45.606Z,66.72
2022-09-27T08:06:32.489Z,67.19
2022-09-27T08:09:18.505Z,67.19
2022-09-27T08:12:04.854Z,66.77
2022-09-27T08:14:52.379Z,66.59
2022-09-27T08:17:38.338Z,66.74
2022-09-27T08:20:32.332Z,66.69
2022-09-27T08:23:27.088Z,66.52
2022-09-27T08:26:45.018Z,69.76
2022-09-27T08:29:41.708Z,67.31
2022-09-27T08:32:28.833Z,67.17
2022-09-27T08:35:15.668Z,67.22
2022-09-27T08:38:03.003Z,66.95
2022-09-27T08:41:22.882Z,67.36
2022-09-27T08:44:30.710Z,67.79
2022-09-27T08:47:35.130Z,68.17
2022-09-27T08:50:21.701Z,67.55
2022-09-27T08:53:21.166Z,67.46
2022-09-27T08:56:08.880Z,67.53
2022-09-27T08:59:12.850Z,67.24
2022-09-27T09:01:59.350Z,66.87
2022-09-27T09:04:57.975Z,67.01
2022-09-27T09:07:55.973Z,66.82
2022-09-27T09:11:03.889Z,66.70
2022-09-27T09:13:49.872Z,66.45
2022-09-27T09:16:57.318Z,66.38
2022-09-27T09:19:56.060Z,66.31
2022-09-27T09:22:50.684Z,66.45
2022-09-27T09:25:55.634Z,66.50
2022-09-27T09:29:02.814Z,66.34
2022-09-27T09:32:27.296Z,66.28
2022-09-27T09:35:40.424Z,66.36
2022-09-27T09:38:26.549Z,66.06
2022-09-27T09:41:20.344Z,66.44
2022-09-27T09:44:15.642Z,66.87
2022-09-27T09:47:03.242Z,66.67
2022-09-27T09:49:53.110Z,67.14
2022-09-27T09:52:54.360Z,67.48
2022-09-27T09:55:44.774Z,66.88
2022-09-27T09:58:44.898Z,66.74
2022-09-27T10:01:40.442Z,67.11
2022-09-27T10:04:28.127Z,66.74
2022-09-27T10:07:20.055Z,66.86
2022-09-27T10:10:08.494Z,67.16
2022-09-27T10:13:13.597Z,66.85
2022-09-27T10:16:02.511Z,67.44
2022-09-27T10:18:50.341Z,66.73
2022-09-27T10:21:41.073Z,66.79
2022-09-27T10:24:27.034Z,67.04
2022-09-27T10:27:27.957Z,66.40
2022-09-27T10:30:32.193Z,66.48
2022-09-27T10:33:21.268Z,66.63
2022-09-27T10:36:24.497Z,66.37
2022-09-27T10:39:22.286Z,66.23
2022-09-27T10:42:37.925Z,66.45
2022-09-27T10:45:33.049Z,66.10
2022-09-27T10:48:33.788Z,65.96
2022-09-27T10:51:30.749Z,65.87
2022-09-27T10:54:23.651Z,65.64
2022-09-27T10:57:19.315Z,65.57
2022-09-27T11:00:27.806Z,65.88
2022-09-27T11:03:15.809Z,65.59
2022-09-27T11:06:24.486Z,65.47
2022-09-27T11:09:26.374Z,65.76
2022-09-27T11:12:14.776Z,65.66
2022-09-27T11:15:11.074Z,65.69
2022-09-27T11:18:27.597Z,65.64
2022-09-27T11:21:40.149Z,65.05
2022-09-27T11:24:32.564Z,64.65
2022-09-27T11:27:28.792Z,64.36
2022-09-27T11:30:17.321Z,65.35
2022-09-27T11:33:27.074Z,63.66
2022-09-27T11:36:31.611Z,64.79
2022-09-27T11:39:22.240Z,64.97
2022-09-27T11:42:29.422Z,64.90
2022-09-27T11:45:50.411Z,64.80
2022-09-27T11:49:12.698Z,62.58
2022-09-27T11:52:05.972Z,64.54
2022-09-27T11:55:24.444Z,64.63
2022-09-27T11:58:28.079Z,64.43
2022-09-27T12:01:35.754Z,64.23
2022-09-27T12:04:40.073Z,61.73
2022-09-27T12:07:45.365Z,62.35
2022-09-27T12:10:31.885Z,63.63
2022-09-27T12:13:27.364Z,62.35
2022-09-27T12:16:17.011Z,60.76
2022-09-27T12:19:03.585Z,63.59
2022-09-27T12:22:15.378Z,62.27
2022-09-27T12:25:05.019Z,61.23
2022-09-27T12:28:25.933Z,62.15
2022-09-27T12:31:30.093Z,60.04
2022-09-27T12:34:21.554Z,61.93
2022-09-27T12:37:33.088Z,60.96
2022-09-27T12:40:29.580Z,55.85
2022-09-27T12:43:18.785Z,61.15
2022-09-27T12:46:43.701Z,59.13
2022-09-27T12:49:57.632Z,55.65
2022-09-27T12:52:52.699Z,59.88
2022-09-27T12:56:01.286Z,53.51
2022-09-27T12:59:10.366Z,55.11
2022-09-27T13:02:21.999Z,59.64
2022-09-27T13:05:53.354Z,59.02
2022-09-27T13:09:11.405Z,59.08
2022-09-27T13:12:11.017Z,58.18
2022-09-27T13:15:06.713Z,57.43
2022-09-27T13:17:56.699Z,57.40
2022-09-27T13:20:52.108Z,57.13
2022-09-27T13:23:58.036Z,57.57
2022-09-27T13:26:50.425Z,57.47
2022-09-27T13:29:36.460Z,57.21
2022-09-27T13:32:29.058Z,57.20
2022-09-27T13:35:31.101Z,56.94
2022-09-27T13:38:25.573Z,55.15
2022-09-27T13:41:18.189Z,53.52
2022-09-27T13:44:34.177Z,55.78
2022-09-27T13:47:36.167Z,56.14
2022-09-27T13:50:48.958Z,56.02
2022-09-27T13:53:39.541Z,55.62
2022-09-27T13:56:36.757Z,55.43
2022-09-27T13:59:49.296Z,54.11
2022-09-27T14:03:15.660Z,52.76
2022-09-27T14:06:08.875Z,51.65
2022-09-27T14:08:58.576Z,50.69
2022-09-27T14:11:50.825Z,50.02
2022-09-27T14:14:37.506Z,50.19
2022-09-27T14:17:23.981Z,46.84
2022-09-27T14:20:33.154Z,49.79
2022-09-27T14:23:23.477Z,49.50
2022-09-27T14:26:27.797Z,49.16
2022-09-27T14:29:22.334Z,49.82
2022-09-27T14:32:13.525Z,49.06
2022-09-27T14:35:34.594Z,49.04
2022-09-27T14:38:38.940Z,47.96
2022-09-27T14:41:45.838Z,46.85
2022-09-27T14:44:32.520Z,46.10
2022-09-27T14:47:20.026Z,45.06
2022-09-27T14:50:30.114Z,33.76
2022-09-27T14:53:25.858Z,44.19
2022-09-27T14:56:18.085Z,43.39
2022-09-27T14:59:17.036Z,44.16
2022-09-27T15:02:10.355Z,43.95
2022-09-27T15:04:56.551Z,44.30
2022-09-27T15:07:44.383Z,43.49
2022-09-27T15:10:33.610Z,43.62
2022-09-27T15:13:19.744Z,43.34
2022-09-27T15:16:16.459Z,43.36
2022-09-27T15:19:29.419Z,43.66
2022-09-27T15:22:24.637Z,45.00
2022-09-27T15:25:24.629Z,43.98
2022-09-27T15:28:19.412Z,44.14
2022-09-27T15:31:07.765Z,44.37
2022-09-27T15:33:56.038Z,44.06
2022-09-27T15:36:55.097Z,43.87
2022-09-27T15:39:42.194Z,43.34
2022-09-27T15:42:28.000Z,43.21
2022-09-27T15:45:34.987Z,42.90
2022-09-27T15:48:21.277Z,43.28
2022-09-27T15:51:40.359Z,43.34
2022-09-27T15:54:30.273Z,43.43
2022-09-27T15:57:16.490Z,43.78
2022-09-27T16:00:02.627Z,43.88
2022-09-27T16:02:57.660Z,43.72
2022-09-27T16:05:43.912Z,44.12
2022-09-27T16:08:30.196Z,43.89
2022-09-27T16:11:17.491Z,43.97
2022-09-27T16:14:03.783Z,44.03
2022-09-27T16:16:51.884Z,44.10
2022-09-27T16:19:37.995Z,44.00
2022-09-27T16:22:24.173Z,44.23
2022-09-27T16:25:10.499Z,44.18
2022-09-27T16:28:00.665Z,43.78
2022-09-27T16:30:48.070Z,44.49
2022-09-27T16:33:35.769Z,44.22
2022-09-27T16:36:21.867Z,44.25
2022-09-27T16:39:12.950Z,44.71
2022-09-27T16:41:59.936Z,44.90
2022-09-27T16:44:48.173Z,44.67
2022-09-27T16:47:34.459Z,44.61
2022-09-27T16:50:39.121Z,45.00
2022-09-27T16:53:25.315Z,45.04
2022-09-27T16:56:11.948Z,44.94
2022-09-27T16:58:59.364Z,45.25
2022-09-27T17:01:45.341Z,45.16
2022-09-27T17:04:31.776Z,45.26
2022-09-27T17:07:18.268Z,45.24
2022-09-27T17:10:05.157Z,45.35
2022-09-27T17:12:51.185Z,45.36
2022-09-27T17:15:37.942Z,45.60
2022-09-27T17:18:24.176Z,45.64
2022-09-27T17:21:10.312Z,45.56
2022-09-27T17:23:57.037Z,45.85
2022-09-27T17:26:43.610Z,45.90
2022-09-27T17:29:31.717Z,46.05
2022-09-27T17:32:24.207Z,46.35
2022-09-27T17:35:10.701Z,46.48
2022-09-27T17:37:56.574Z,46.37
2022-09-27T17:40:42.470Z,46.67
2022-09-27T17:43:32.059Z,46.66
2022-09-27T17:46:19.939Z,46.68
2022-09-27T17:49:24.657Z,46.55
2022-09-27T17:52:10.714Z,46.85
2022-09-27T17:54:58.452Z,46.79
2022-09-27T17:57:47.766Z,46.99
2022-09-27T18:00:34.273Z,46.92
2022-09-27T18:03:20.824Z,46.73
2022-09-27T18:06:07.769Z,47.03
2022-09-27T18:08:54.907Z,46.89
2022-09-27T18:11:41.088Z,47.13
2022-09-27T18:14:27.455Z,47.18
2022-09-27T18:17:13.439Z,47.27
2022-09-27T18:20:02.104Z,47.41
2022-09-27T18:22:48.032Z,47.29
2022-09-27T18:25:40.447Z,47.33
2022-09-27T18:28:29.841Z,47.58
2022-09-27T18:31:17.214Z,47.64
2022-09-27T18:34:03.942Z,47.76
2022-09-27T18:36:49.907Z,47.85
2022-09-27T18:39:36.253Z,47.87
2022-09-27T18:42:22.204Z,47.83
2022-09-27T18:45:08.747Z,47.85
2022-09-27T18:47:55.428Z,48.02
2022-09-27T18:50:41.373Z,48.18
2022-09-27T18:53:27.388Z,47.99
2022-09-27T18:56:15.669Z,48.50
2022-09-27T18:59:01.714Z,48.38
2022-09-27T19:01:47.910Z,48.42
2022-09-27T19:04:33.925Z,48.49
2022-09-27T19:07:20.348Z,48.59
2022-09-27T19:10:07.121Z,48.73
2022-09-27T19:12:56.904Z,48.74
2022-09-27T19:15:43.666Z,48.63
2022-09-27T19:18:30.026Z,48.75
2022-09-27T19:21:21.496Z,48.88
2022-09-27T19:24:07.848Z,49.01
2022-09-27T19:26:55.932Z,48.94
2022-09-27T19:29:41.853Z,49.16
2022-09-27T19:32:27.865Z,49.14
2022-09-27T19:35:14.093Z,49.48
2022-09-27T19:38:00.097Z,49.35
2022-09-27T19:40:53.516Z,49.64
2022-09-27T19:43:40.040Z,49.52
2022-09-27T19:46:26.657Z,49.64
2022-09-27T19:49:13.080Z,49.75
2022-09-27T19:51:59.366Z,49.52
2022-09-27T19:54:45.822Z,49.29
2022-09-27T19:57:31.894Z,49.75
2022-09-27T20:00:18.236Z,49.87
2022-09-27T20:03:04.354Z,49.79
2022-09-27T20:05:57.048Z,50.15
2022-09-27T20:08:44.189Z,50.19
2022-09-27T20:11:31.384Z,50.34
2022-09-27T20:14:17.991Z,50.26
2022-09-27T20:17:04.049Z,50.15
2022-09-27T20:19:50.121Z,50.17
2022-09-27T20:22:36.079Z,50.32
2022-09-27T20:25:23.114Z,50.55
2022-09-27T20:28:09.122Z,50.33
2022-09-27T20:30:59.981Z,50.42
2022-09-27T20:33:50.860Z,50.53
2022-09-27T20:36:39.676Z,50.65
2022-09-27T20:39:26.053Z,50.57
2022-09-27T20:42:12.258Z,50.70
2022-09-27T20:44:58.366Z,50.99
2022-09-27T20:47:44.488Z,50.81
2022-09-27T20:50:30.479Z,50.87
2022-09-27T20:53:16.655Z,50.86
2022-09-27T20:56:02.989Z,50.84
2022-09-27T20:58:51.238Z,50.91
2022-09-27T21:01:37.192Z,51.18
2022-09-27T21:04:23.645Z,50.87
2022-09-27T21:07:09.448Z,50.97
2022-09-27T21:09:55.676Z,50.72
2022-09-27T21:12:41.459Z,50.79
2022-09-27T21:15:27.491Z,51.05
2022-09-27T21:18:13.961Z,51.22
2022-09-27T21:21:12.438Z,51.25
2022-09-27T21:24:01.157Z,51.04
2022-09-27T21:26:47.350Z,51.44
2022-09-27T21:29:33.193Z,51.20
2022-09-27T21:32:19.205Z,51.37
2022-09-27T21:35:05.806Z,51.30
2022-09-27T21:37:51.834Z,51.72
2022-09-27T21:40:37.968Z,51.86
2022-09-27T21:43:28.222Z,51.79
2022-09-27T21:46:16.506Z,51.63
2022-09-27T21:49:02.953Z,51.91
2022-09-27T21:51:48.824Z,52.02
2022-09-27T21:54:34.837Z,51.76
2022-09-27T21:57:20.862Z,51.65
2022-09-27T22:00:07.669Z,52.15
2022-09-27T22:02:59.625Z,52.10
2022-09-27T22:05:46.625Z,52.09
2022-09-27T22:08:33.091Z,52.17
2022-09-27T22:11:24.878Z,51.93
2022-09-27T22:14:11.751Z,52.33
2022-09-27T22:16:57.762Z,52.29
2022-09-27T22:19:43.786Z,52.42
2022-09-27T22:22:29.528Z,52.29
2022-09-27T22:25:15.511Z,52.08
2022-09-27T22:28:02.046Z,52.11
2022-09-27T22:30:47.941Z,52.12
2022-09-27T22:33:34.155Z,52.08
2022-09-27T22:36:21.304Z,52.16
2022-09-27T22:39:07.220Z,52.11
2022-09-27T22:41:53.004Z,52.14
2022-09-27T22:44:39.397Z,52.22
2022-09-27T22:47:25.301Z,52.50
2022-09-27T22:50:11.860Z,52.31
2022-09-27T22:52:57.839Z,52.63
2022-09-27T22:55:43.568Z,52.48
2022-09-27T22:58:29.882Z,52.61
2022-09-27T23:01:24.169Z,52.34
2022-09-27T23:04:10.142Z,52.35
2022-09-27T23:06:55.844Z,52.37
2022-09-27T23:09:41.753Z,52.31
2022-09-27T23:12:27.503Z,52.52
2022-09-27T23:15:18.403Z,52.64
2022-09-27T23:18:06.496Z,52.76
2022-09-27T23:20:52.605Z,52.62
2022-09-27T23:23:41.264Z,52.65
2022-09-27T23:26:28.070Z,52.76
2022-09-27T23:29:14.217Z,52.88
2022-09-27T23:32:00.773Z,53.18
2022-09-27T23:34:46.818Z,52.71
2022-09-27T23:37:32.786Z,52.82
2022-09-27T23:40:18.715Z,53.31
2022-09-27T23:43:04.688Z,53.29
2022-09-27T23:45:50.931Z,53.28
2022-09-27T23:48:37.299Z,53.21
2022-09-27T23:51:23.118Z,53.43
2022-09-27T23:54:09.063Z,53.29
2022-09-27T23:56:54.941Z,53.62
2022-09-27T23:59:41.047Z,53.25
